• Join FlightAware (Why Join?)
  • Login
  • US Flag 
01:00PM EDT


 

Airport Tracker/Info


-or-


 

Live Flight TrackerFlight Track Log ✈ VH-BGZ ✈ 28-Jun-2013 ✈ YMRY / MYA - YSBK / BWU

Flight Track Log - Related Links

Times and Time Zones

All times are in EDT time to prevent confusion due to time zone crossing. See the VH-BGZ flight status page for this flight to view local times or setup timezone preferences in your user account.

Time Position Orientation Groundspeed Altitude Reporting Facility
EDT Latitude Longitude Course Direction KTS MPH feet Rate Location/Type
12:50AM -35.7799 150.1920 17° North 7,000  Level Aus ATC (Calculated)
12:51AM -35.7799 150.1920 17° North 7,000 -240 Level Aus ATC (Calculated)
12:53AM -35.8210 150.1749 19° North  Level FlightAware Approximate
12:53AM -35.7214 150.2142 19° North 127 146 6,400  Level Aus ATC (RADAR)
12:54AM -35.6851 150.2304 20° North 141 162 7,300 360 Climbing Aus ATC (RADAR)
12:55AM -35.6443 150.2446 16° North 165 190 7,200 -240 Descending Aus ATC (RADAR)
12:55AM -35.6158 150.2597 23° Northeast 185 213 7,000 -120 Descending Aus ATC (RADAR)
12:56AM -35.5751 150.2754 17° North 185 213 7,100  Climbing Aus ATC (RADAR)
12:57AM -35.5275 150.2948 18° North 182 209 7,100  Level Aus ATC (RADAR)
12:58AM -35.4890 150.3103 18° North 175 201 7,100  Level Aus ATC (RADAR)
12:59AM -35.4374 150.3312 18° North 180 207 7,200 60 Climbing Aus ATC (RADAR)
12:59AM -35.4096 150.3431 19° North 181 208 7,200  Level Aus ATC (RADAR)
01:00AM -35.3819 150.3545 19° North 180 207 7,200  Level Aus ATC (RADAR)
01:01AM -35.3381 150.3721 18° North 181 208 7,200 -120 Level Aus ATC (RADAR)
01:02AM -35.2938 150.3899 18° North 184 212 7,000  Descending Aus ATC (RADAR)
01:03AM -35.2457 150.4095 18° North 184 212 7,200 60 Climbing Aus ATC (RADAR)
01:04AM -35.1970 150.4293 18° North 185 213 7,200 -120 Level Aus ATC (RADAR)
01:04AM -35.1686 150.4411 19° North 185 213 7,100  Descending Aus ATC (RADAR)
01:05AM -35.1364 150.4541 18° North 183 211 7,200  Climbing Aus ATC (RADAR)
01:06AM -35.0959 150.4703 18° North 184 212 7,100  Descending Aus ATC (RADAR)
01:07AM -35.0556 150.4866 18° North 184 212 7,200  Climbing Aus ATC (RADAR)
01:08AM -35.0068 150.5065 19° North 185 213 7,100 -60 Descending Aus ATC (RADAR)
01:09AM -34.9496 150.5296 18° North 185 213 7,100  Level Aus ATC (RADAR)
01:10AM -34.8991 150.5381 North 181 208 7,100  Level Aus ATC (RADAR)
01:11AM -34.8576 150.5460 North 181 208 7,100  Level Aus ATC (RADAR)
01:11AM -34.8283 150.5509 North 182 209 7,100 60 Level Aus ATC (RADAR)
01:12AM -34.7866 150.5583 North 182 209 7,200 -60 Climbing Aus ATC (RADAR)
01:13AM -34.7403 150.5666 North 184 212 7,000 -60 Descending Aus ATC (RADAR)
01:14AM -34.7024 150.5730 North 185 213 7,100  Climbing Aus ATC (RADAR)
01:14AM -34.6728 150.5784 North 186 214 7,000 60 Descending Aus ATC (RADAR)
01:15AM -34.6214 150.5873 North 188 216 7,200  Climbing Aus ATC (RADAR)
01:16AM -34.5791 150.5948 North 185 213 7,100  Descending Aus ATC (RADAR)
01:17AM -34.5368 150.6018 North 184 212 7,200 -240 Climbing Aus ATC (RADAR)
01:18AM -34.5070 150.6071 North 187 215 6,800 -720 Descending Aus ATC (RADAR)
01:19AM -34.4295 150.6209 North 199 229 5,800 -780 Descending Aus ATC (RADAR)
01:20AM -34.3777 150.6301 North 204 235 5,000 -900 Descending Aus ATC (RADAR)
01:21AM -34.3360 150.6371 North 200 230 4,400 -420 Descending Aus ATC (RADAR)
01:21AM -34.3056 150.6426 North 187 215 4,500 -180 Climbing Aus ATC (RADAR)
01:22AM -34.2678 150.6495 North 182 209 4,200 -180 Descending Aus ATC (RADAR)
01:23AM -34.2086 150.6605 North 180 207 4,200  Level Aus ATC (RADAR)
01:24AM -34.1798 150.6657 North 179 206 4,200  Level Aus ATC (RADAR)
01:24AM -34.1512 150.6709 North 178 205 4,200  Level Aus ATC (RADAR)
01:25AM -34.1104 150.6784 North 178 205 4,200  Level Aus ATC (RADAR)
01:26AM -34.0620 150.6872 North 176 203 4,200 -360 Level Aus ATC (RADAR)
01:27AM -34.0301 150.7127 33° Northeast 175 201 3,600 -780 Descending Aus ATC (RADAR)
01:28AM -34.0075 150.7351 39° Northeast 189 217 3,100 -780 Descending Aus ATC (RADAR)
01:29AM -33.9645 150.7561 22° Northeast 178 205 2,500 -300 Descending Aus ATC (RADAR)
01:29AM -33.9461 150.7722 36° Northeast 164 189 2,700 180 Climbing Aus ATC (RADAR)
01:30AM -33.9255 150.7886 34° Northeast 152 175 2,700  Level Aus ATC (RADAR)
01:31AM -33.8980 150.8120 35° Northeast 144 166 2,700  Level Aus ATC (RADAR)
01:31AM -33.8763 150.8305 35° Northeast 143 165 2,700 -240 Level Aus ATC (RADAR)
01:32AM -33.8653 150.8615 67° East 131 151 2,400 -540 Descending Aus ATC (RADAR)
01:33AM -33.8797 150.8971 116° Southeast 127 146 1,800 -840 Descending Aus ATC (RADAR)
01:34AM -33.8936 150.9276 119° Southeast 115 132 1,000 -840 Descending Aus ATC (RADAR)
01:34AM -33.9004 150.9440 116° Southeast 107 123 700 -600 Descending Aus ATC (RADAR)
01:35AM -33.9076 150.9615 116° Southeast 99 114 400 -480 Descending Aus ATC (RADAR)
01:36AM -33.9184 150.9806 124° Southeast 90 104 100 -420 Descending Aus ATC (RADAR)